Pagrindinis puslapis
METAR-TAF:

METAR-TAF

Oro uostai :

Ivalo, Suomija

platuma: 68-37N, ilguma: 027-25E, Aukštis: 147 m

Dabartinis oras

Ataskaita buvo paskelbta 23 minutes, ne 05:20 UTC
Vėjas 8 kt iš Šiaurės/Šiaurės Rytų
Temperatūra -1°C
Drėgmė 93%
Slėgis 990 hPa
Matomumas: 1900 m
Apsiniaukę ne aukštis 1100 ft
sniegas

METAR: EFIV 230520Z 03008KT 1900 SN OVC011 M01/M02 Q0990

Laikas: 08:43 (05:43 UTC)

Prognozė

Ataskaita buvo paskelbta 3 valandos ir 8 minutes, ne 02:35 UTC
Prognozė galioja nuo 23 metu 03 UTC su 23 metu 12 UTC
Vėjas 7 kt iš Šiaurės Rytų
Matomumas: 6000 m
Išsisklaidę debesys ne aukštis 800 ft
Su prošvaistėmis ne aukštis 3500 ft
sniegas
Laikinai
nuo 23 metu 03 UTC su 23 metu 12 UTC
Matomumas: 1500 m
Su prošvaistėmis ne aukštis 700 ft
sniegas

TAF: EFIV 230235Z 2303/2312 04007KT 6000 -SN SCT008 BKN035 TEMPO 2303/2312 1500 SN BKN007

Orai ataskaitas ir orų prognozės (METAR, TAF).

turimą stotys yra geltonos ir raudonos taškus žemėlapyje.

Perkelti pele per norėdami pamatyti stoties vardą.

Tada spustelėkite, norėdami matyti oro stebėjimo ir prognozės.

Norėdami pakeisti žemėlapį: spustelėkite ant žalios mygtukų su juodo kryžiaus žemyn,; žalią mygtuką su brūkšneliu, jei norite nutolinti; arba žalių rodyklių gretimoms žemėlapius.


METAR-TAF: